Itabira, Brazil
Current Conditions -  °F | °C
As of 2:00 PM on Tuesday 21 Oct 2014 (Local Time) from SBLS Reporting Station
Broken Clouds Broken Clouds  
Wind Chill: 79°   Ceiling: 3500
Heat Index: 80°   Visibility: 6mi
Dew Point: 59°   Wind: 10mph
Humidity: 51%   Direction: 130°SE
Pressure: 30.09"   Gusts: NA
Location:  19.62°S, 43.23°W
Report Text: SBLS 211600Z 13009KT 9999 BKN035 FEW040TCU BKN100 26/15 Q1019
Loading
Personal Weather Stations






























Interactive Weather Map
Tropical Storm Tracking
New forecast layout! Learn more

10-Day Weather Forecast

Advertisements
Track Severe Weather on mobile